createdAt,value
2022-10-17T00:04:40.217Z,1.92
2022-10-17T00:10:01.035Z,1.52
2022-10-17T00:15:22.382Z,2.25
2022-10-17T00:20:43.184Z,1.88
2022-10-17T00:26:06.295Z,1.92
2022-10-17T00:31:27.102Z,1.17
2022-10-17T00:36:47.659Z,1.27
2022-10-17T00:42:12.869Z,1.75
2022-10-17T00:47:34.770Z,1.67
2022-10-17T00:53:00.442Z,2.22
2022-10-17T00:58:21.581Z,2.00
2022-10-17T01:03:49.139Z,2.20
2022-10-17T01:09:09.821Z,1.63
2022-10-17T01:15:19.131Z,2.63
2022-10-17T01:21:07.564Z,1.88
2022-10-17T01:26:55.043Z,2.17
2022-10-17T01:32:19.959Z,2.47
2022-10-17T01:43:19.851Z,1.80
2022-10-17T01:48:43.932Z,1.85
2022-10-17T01:54:12.310Z,2.25
2022-10-17T01:59:42.376Z,2.08
2022-10-17T02:05:04.045Z,3.13
2022-10-17T02:11:03.430Z,2.25
2022-10-17T02:16:42.787Z,3.00
2022-10-17T02:22:08.986Z,2.58
2022-10-17T02:28:04.098Z,2.20
2022-10-17T02:33:41.314Z,1.63
2022-10-17T02:39:05.379Z,3.35
2022-10-17T02:44:28.265Z,2.20
2022-10-17T02:49:51.937Z,2.58
2022-10-17T02:55:21.646Z,2.50
2022-10-17T03:00:43.767Z,3.00
2022-10-17T03:06:04.515Z,2.80
2022-10-17T03:11:25.536Z,2.63
2022-10-17T03:16:46.239Z,2.35
2022-10-17T03:22:08.741Z,2.05
2022-10-17T03:27:30.935Z,1.83
2022-10-17T03:32:51.889Z,2.00
2022-10-17T03:38:12.611Z,2.05
2022-10-17T03:43:33.175Z,2.58
2022-10-17T03:48:54.859Z,2.55
2022-10-17T03:54:16.038Z,1.67
2022-10-17T03:59:36.965Z,3.10
2022-10-17T04:05:07.300Z,1.77
2022-10-17T04:10:28.326Z,2.55
2022-10-17T04:16:10.343Z,2.35
2022-10-17T04:21:35.972Z,2.47
2022-10-17T04:27:00.300Z,2.95
2022-10-17T04:32:25.669Z,2.67
2022-10-17T04:37:54.483Z,2.95
2022-10-17T04:43:15.710Z,2.20
2022-10-17T04:48:39.884Z,3.00
2022-10-17T04:54:00.787Z,2.45
2022-10-17T04:59:21.787Z,1.90
2022-10-17T05:04:49.125Z,2.22
2022-10-17T05:10:11.053Z,2.45
2022-10-17T05:15:34.713Z,2.45
2022-10-17T05:20:56.198Z,2.30
2022-10-17T05:26:18.371Z,2.70
2022-10-17T05:31:38.862Z,3.47
2022-10-17T05:37:00.916Z,1.80
2022-10-17T05:42:21.813Z,3.20
2022-10-17T05:47:42.803Z,2.50
2022-10-17T05:53:03.752Z,1.70
2022-10-17T06:04:19.321Z,2.03
2022-10-17T06:09:40.218Z,3.45
2022-10-17T06:15:02.013Z,2.45
2022-10-17T06:20:22.968Z,3.00
2022-10-17T06:25:43.458Z,2.80
2022-10-17T06:31:09.233Z,2.75
2022-10-17T06:36:29.900Z,3.22
2022-10-17T06:41:50.297Z,2.50
2022-10-17T06:47:16.578Z,2.35
2022-10-17T06:52:39.758Z,2.10
2022-10-17T06:58:22.311Z,2.08
2022-10-17T07:03:58.926Z,2.50
2022-10-17T07:09:20.185Z,2.30
2022-10-17T07:14:41.267Z,1.95
2022-10-17T07:20:02.134Z,3.28
2022-10-17T07:25:26.901Z,2.60
2022-10-17T07:30:53.803Z,2.67
2022-10-17T07:36:15.487Z,2.50
2022-10-17T07:41:36.549Z,2.53
2022-10-17T07:46:58.222Z,3.03
2022-10-17T07:52:19.152Z,2.38
2022-10-17T07:57:40.423Z,2.83
2022-10-17T08:03:00.871Z,3.45
2022-10-17T08:08:21.380Z,3.05
2022-10-17T08:13:42.652Z,2.92
2022-10-17T08:19:03.800Z,3.28
2022-10-17T08:24:24.786Z,2.88
2022-10-17T08:29:48.345Z,3.08
2022-10-17T08:35:09.697Z,3.13
2022-10-17T08:40:33.773Z,3.28
2022-10-17T08:46:05.159Z,3.78
2022-10-17T08:51:31.844Z,3.50
2022-10-17T08:56:55.356Z,3.47
2022-10-17T09:02:44.582Z,4.07
2022-10-17T09:08:17.528Z,3.85
2022-10-17T09:13:58.614Z,3.92
2022-10-17T09:19:36.300Z,3.13
2022-10-17T09:25:05.240Z,4.05
2022-10-17T09:30:44.787Z,4.30
2022-10-17T09:36:16.252Z,4.25
2022-10-17T09:41:45.902Z,4.03
2022-10-17T09:47:24.773Z,4.97
2022-10-17T09:52:47.715Z,5.40
2022-10-17T09:58:10.311Z,5.22
2022-10-17T10:03:30.804Z,5.78
2022-10-17T10:08:54.593Z,5.35
2022-10-17T10:14:37.610Z,5.95
2022-10-17T10:19:58.407Z,7.00
2022-10-17T10:25:19.565Z,6.22
2022-10-17T10:30:40.153Z,6.40
2022-10-17T10:36:04.090Z,6.97
2022-10-17T10:41:27.707Z,7.10
2022-10-17T10:46:48.118Z,6.68
2022-10-17T10:52:15.797Z,7.78
2022-10-17T10:57:38.664Z,8.82
2022-10-17T11:03:12.611Z,7.28
2022-10-17T11:09:00.196Z,8.93
2022-10-17T11:14:44.431Z,8.43
2022-10-17T11:20:11.855Z,8.85
2022-10-17T11:25:35.494Z,9.45
2022-10-17T11:31:07.991Z,9.27
2022-10-17T11:36:32.375Z,9.98
2022-10-17T11:42:13.974Z,9.10
2022-10-17T11:47:46.713Z,8.55
2022-10-17T11:53:20.547Z,10.07
2022-10-17T11:59:06.361Z,10.88
2022-10-17T12:04:36.107Z,9.70
2022-10-17T12:10:05.139Z,9.45
2022-10-17T12:15:26.196Z,9.43
2022-10-17T12:21:00.537Z,12.43
2022-10-17T12:26:29.998Z,10.73
2022-10-17T12:31:50.423Z,9.98
2022-10-17T12:37:11.766Z,10.00
2022-10-17T12:42:33.604Z,9.45
2022-10-17T12:47:54.228Z,10.60
2022-10-17T12:53:19.300Z,9.55
2022-10-17T12:58:46.461Z,10.13
2022-10-17T13:04:10.661Z,9.90
2022-10-17T13:09:42.551Z,9.82
2022-10-17T13:15:06.764Z,9.32
2022-10-17T13:20:31.599Z,10.15
2022-10-17T13:26:14.358Z,9.90
2022-10-17T13:31:38.080Z,9.75
2022-10-17T13:37:08.134Z,9.35
2022-10-17T13:42:39.376Z,8.23
2022-10-17T13:48:04.348Z,8.43
2022-10-17T13:53:30.960Z,8.13
2022-10-17T13:58:58.675Z,8.75
2022-10-17T14:04:20.326Z,8.07
2022-10-17T14:09:41.369Z,7.32
2022-10-17T14:15:13.797Z,7.53
2022-10-17T14:21:08.201Z,5.88
2022-10-17T14:26:21.729Z,6.30
2022-10-17T14:31:42.462Z,6.20
2022-10-17T14:37:09.961Z,6.88
2022-10-17T14:42:30.315Z,6.55
2022-10-17T14:47:52.790Z,5.43
2022-10-17T14:53:12.992Z,5.85
2022-10-17T14:58:33.822Z,5.82
2022-10-17T15:03:54.465Z,6.80
2022-10-17T15:09:14.823Z,6.38
2022-10-17T15:14:35.331Z,6.68
2022-10-17T15:19:57.294Z,5.85
2022-10-17T15:25:17.949Z,5.50
2022-10-17T15:30:38.669Z,5.28
2022-10-17T15:35:59.678Z,6.78
2022-10-17T15:41:20.821Z,6.15
2022-10-17T15:46:41.994Z,6.50
2022-10-17T15:52:02.616Z,6.30
2022-10-17T15:57:27.138Z,6.35
2022-10-17T16:02:49.164Z,5.93
2022-10-17T16:08:09.859Z,5.82
2022-10-17T16:13:30.640Z,5.60
2022-10-17T16:18:51.033Z,7.30
2022-10-17T16:24:12.663Z,5.72
2022-10-17T16:29:33.513Z,7.43
2022-10-17T16:34:54.201Z,6.70
2022-10-17T16:40:15.893Z,6.70
2022-10-17T16:45:36.581Z,7.07
2022-10-17T16:50:57.086Z,6.35
2022-10-17T16:56:19.741Z,5.75
2022-10-17T17:01:40.721Z,5.72
2022-10-17T17:07:01.297Z,5.63
2022-10-17T17:12:22.534Z,6.25
2022-10-17T17:17:51.277Z,5.50
2022-10-17T17:23:15.908Z,4.82
2022-10-17T17:28:37.445Z,5.77
2022-10-17T17:33:58.974Z,6.40
2022-10-17T17:39:19.644Z,5.07
2022-10-17T17:44:40.032Z,5.68
2022-10-17T17:50:00.401Z,5.75
2022-10-17T17:55:21.056Z,5.70
2022-10-17T18:00:42.066Z,5.00
2022-10-17T18:06:05.581Z,5.43
2022-10-17T18:11:27.286Z,5.60
2022-10-17T18:16:48.171Z,6.10
2022-10-17T18:22:09.392Z,5.57
2022-10-17T18:27:29.727Z,5.50
2022-10-17T18:32:50.305Z,5.82
2022-10-17T18:38:10.800Z,5.25
2022-10-17T18:43:32.956Z,5.82
2022-10-17T18:48:53.938Z,5.03
2022-10-17T18:54:17.157Z,6.45
2022-10-17T18:59:37.686Z,5.07
2022-10-17T19:04:58.405Z,6.10
2022-10-17T19:10:19.419Z,6.50
2022-10-17T19:15:40.132Z,6.38
2022-10-17T19:21:09.264Z,6.47
2022-10-17T19:26:33.324Z,7.40
2022-10-17T19:37:14.672Z,5.82
2022-10-17T19:42:35.408Z,5.40
2022-10-17T19:47:55.931Z,5.43
2022-10-17T19:53:17.632Z,6.43
2022-10-17T19:58:45.153Z,6.05
2022-10-17T20:04:06.554Z,5.70
2022-10-17T20:09:26.975Z,4.30
2022-10-17T20:14:47.568Z,6.15
2022-10-17T20:20:08.879Z,5.28
2022-10-17T20:25:30.417Z,5.38
2022-10-17T20:30:50.931Z,5.85
2022-10-17T20:36:13.535Z,6.38
2022-10-17T20:41:34.632Z,4.65
2022-10-17T20:47:02.205Z,6.13
2022-10-17T20:52:22.819Z,5.10
2022-10-17T20:57:43.570Z,5.13
2022-10-17T21:03:04.002Z,4.78
2022-10-17T21:08:24.753Z,6.00
2022-10-17T21:13:46.803Z,3.95
2022-10-17T21:19:07.505Z,5.15
2022-10-17T21:24:28.033Z,4.30
2022-10-17T21:29:48.734Z,3.67
2022-10-17T21:35:09.165Z,4.43
2022-10-17T21:40:29.970Z,4.45
2022-10-17T21:45:51.190Z,6.07
2022-10-17T21:51:15.361Z,4.00
2022-10-17T21:56:36.690Z,4.65
2022-10-17T22:01:57.123Z,4.70
2022-10-17T22:07:17.821Z,5.05
2022-10-17T22:12:38.281Z,6.18
2022-10-17T22:17:58.627Z,4.38
2022-10-17T22:23:19.224Z,4.45
2022-10-17T22:28:41.058Z,4.82
2022-10-17T22:34:01.858Z,4.70
2022-10-17T22:39:22.518Z,5.22
2022-10-17T22:44:43.515Z,4.32
2022-10-17T22:50:04.068Z,3.85
2022-10-17T22:55:24.754Z,5.93
2022-10-17T23:00:45.460Z,5.38
2022-10-17T23:06:06.229Z,4.75
2022-10-17T23:11:26.650Z,4.78
2022-10-17T23:16:47.124Z,4.97
2022-10-17T23:22:08.386Z,4.85
2022-10-17T23:32:50.679Z,3.92
2022-10-17T23:38:11.389Z,4.85
2022-10-17T23:43:34.287Z,4.20
2022-10-17T23:48:55.057Z,4.22
2022-10-17T23:54:15.756Z,4.13
2022-10-17T23:59:36.207Z,4.60
